createdAt,value
2018-02-20T00:00:13.019Z,0
2018-02-20T00:01:13.586Z,0
2018-02-20T00:02:14.155Z,0
2018-02-20T00:03:14.719Z,0
2018-02-20T00:04:15.288Z,0
2018-02-20T00:05:15.850Z,0
2018-02-20T00:06:16.417Z,0
2018-02-20T00:07:16.985Z,0
2018-02-20T00:08:17.550Z,0
2018-02-20T00:09:18.118Z,0
2018-02-20T00:10:18.685Z,0
2018-02-20T00:11:19.251Z,0
2018-02-20T00:12:19.819Z,0
2018-02-20T00:13:20.385Z,0
2018-02-20T00:14:20.952Z,0
2018-02-20T00:15:21.516Z,0
2018-02-20T00:16:22.082Z,0
2018-02-20T00:17:22.650Z,0
2018-02-20T00:18:23.216Z,0
2018-02-20T00:19:23.784Z,0
2018-02-20T00:20:24.349Z,0
2018-02-20T00:21:24.915Z,0
2018-02-20T00:22:25.483Z,0
2018-02-20T00:23:26.050Z,0
2018-02-20T00:24:26.617Z,0
2018-02-20T00:25:27.181Z,0
2018-02-20T00:26:27.749Z,0
2018-02-20T00:27:28.316Z,0
2018-02-20T00:28:28.897Z,0
2018-02-20T00:29:29.478Z,0
2018-02-20T00:30:30.061Z,0
2018-02-20T00:31:30.637Z,0
2018-02-20T00:32:31.204Z,0
2018-02-20T00:33:31.772Z,0
2018-02-20T00:34:32.352Z,0
2018-02-20T00:35:32.920Z,0
2018-02-20T00:36:33.488Z,0
2018-02-20T00:37:34.054Z,0
2018-02-20T00:38:34.620Z,0
2018-02-20T00:39:35.187Z,0
2018-02-20T00:40:35.753Z,0
2018-02-20T00:41:36.320Z,0
2018-02-20T00:42:36.886Z,0
2018-02-20T00:43:37.452Z,0
2018-02-20T00:44:38.021Z,0
2018-02-20T00:45:38.592Z,0
2018-02-20T00:46:39.155Z,0
2018-02-20T00:47:39.721Z,0
2018-02-20T00:48:40.288Z,0
2018-02-20T00:49:40.858Z,0
2018-02-20T00:50:41.419Z,0
2018-02-20T00:51:41.987Z,0
2018-02-20T00:52:42.552Z,0
2018-02-20T00:53:43.119Z,0
2018-02-20T00:54:43.687Z,0
2018-02-20T00:55:44.252Z,0
2018-02-20T00:56:44.821Z,0
2018-02-20T00:57:45.387Z,0
2018-02-20T00:58:45.955Z,0
2018-02-20T00:59:46.522Z,0
2018-02-20T01:00:47.089Z,0
2018-02-20T01:01:47.654Z,0
2018-02-20T01:02:48.220Z,0
2018-02-20T01:03:48.786Z,0
2018-02-20T01:04:49.355Z,0
2018-02-20T01:05:49.921Z,0
2018-02-20T01:06:50.486Z,0
2018-02-20T01:07:51.052Z,0
2018-02-20T01:08:51.620Z,0
2018-02-20T01:09:52.199Z,0
2018-02-20T01:10:52.768Z,0
2018-02-20T01:11:53.332Z,0
2018-02-20T01:12:53.913Z,0
2018-02-20T01:13:54.483Z,0
2018-02-20T01:14:55.047Z,0
2018-02-20T01:15:55.612Z,0
2018-02-20T01:16:56.181Z,0
2018-02-20T01:17:56.747Z,0
2018-02-20T01:18:57.313Z,0
2018-02-20T01:19:57.878Z,0
2018-02-20T01:20:58.443Z,0
2018-02-20T01:21:59.012Z,0
2018-02-20T01:22:59.577Z,0
2018-02-20T01:24:00.145Z,0
2018-02-20T01:25:00.712Z,0
2018-02-20T01:26:01.279Z,0
2018-02-20T01:27:01.846Z,0
2018-02-20T01:28:02.412Z,0
2018-02-20T01:29:02.978Z,0
2018-02-20T01:30:03.543Z,0
2018-02-20T01:31:04.110Z,0
2018-02-20T01:32:04.679Z,0
2018-02-20T01:33:05.271Z,0
2018-02-20T01:34:05.811Z,0
2018-02-20T01:35:06.377Z,0
2018-02-20T01:36:06.944Z,0
2018-02-20T01:37:07.512Z,0
2018-02-20T01:38:08.079Z,0
2018-02-20T01:39:08.645Z,0
2018-02-20T01:40:09.212Z,0
2018-02-20T01:41:09.792Z,0
2018-02-20T01:42:10.358Z,0
2018-02-20T01:43:10.926Z,0
2018-02-20T01:44:11.492Z,0
2018-02-20T01:45:12.074Z,0
2018-02-20T01:46:12.638Z,0
2018-02-20T01:47:13.203Z,0
2018-02-20T01:48:13.768Z,0
2018-02-20T01:49:14.347Z,0
2018-02-20T01:50:14.911Z,0
2018-02-20T01:51:15.477Z,0
2018-02-20T01:52:16.045Z,0
2018-02-20T01:53:16.611Z,0
2018-02-20T01:54:17.178Z,0
2018-02-20T01:55:17.743Z,0
2018-02-20T01:56:18.322Z,0
2018-02-20T01:57:18.887Z,0
2018-02-20T01:58:19.451Z,0
2018-02-20T01:59:20.018Z,0
2018-02-20T02:00:20.587Z,0
2018-02-20T02:01:21.153Z,0
2018-02-20T02:02:21.718Z,0
2018-02-20T02:03:22.284Z,0
2018-02-20T02:04:22.851Z,0
2018-02-20T02:05:23.419Z,0
2018-02-20T02:06:23.982Z,0
2018-02-20T02:07:24.548Z,0
2018-02-20T02:08:25.114Z,0
2018-02-20T02:09:25.680Z,0
2018-02-20T02:10:26.247Z,0
2018-02-20T02:11:26.812Z,0
2018-02-20T02:12:27.391Z,0
2018-02-20T02:13:27.957Z,0
2018-02-20T02:14:28.522Z,0
2018-02-20T02:15:29.088Z,0
2018-02-20T02:16:29.654Z,0
2018-02-20T02:17:30.220Z,0
2018-02-20T02:18:30.792Z,0
2018-02-20T02:19:31.352Z,0
2018-02-20T02:20:31.918Z,0
2018-02-20T02:21:32.482Z,0
2018-02-20T02:22:33.049Z,0
2018-02-20T02:23:33.627Z,0
2018-02-20T02:24:34.192Z,0
2018-02-20T02:25:34.760Z,0
2018-02-20T02:26:35.332Z,0
2018-02-20T02:27:35.893Z,0
2018-02-20T02:28:36.458Z,0
2018-02-20T02:29:37.025Z,0
2018-02-20T02:30:37.596Z,0
2018-02-20T02:31:38.164Z,0
2018-02-20T02:32:38.726Z,0
2018-02-20T02:33:39.291Z,0
2018-02-20T02:34:39.859Z,0
2018-02-20T02:35:40.426Z,0
2018-02-20T02:36:40.995Z,0
2018-02-20T02:37:41.559Z,0
2018-02-20T02:38:42.125Z,0
2018-02-20T02:39:42.692Z,0
2018-02-20T02:40:43.259Z,0
2018-02-20T02:41:43.822Z,0
2018-02-20T02:42:44.389Z,0
2018-02-20T02:43:44.953Z,0
2018-02-20T02:44:45.521Z,0
2018-02-20T02:45:46.087Z,0
2018-02-20T02:46:46.653Z,0
2018-02-20T02:47:47.232Z,0
2018-02-20T02:48:47.797Z,0
2018-02-20T02:49:48.360Z,0
2018-02-20T02:50:48.927Z,0
2018-02-20T02:51:49.492Z,0
2018-02-20T02:52:50.059Z,0
2018-02-20T02:53:50.627Z,0
2018-02-20T02:54:51.206Z,0
2018-02-20T02:55:51.770Z,0
2018-02-20T02:56:52.334Z,0
2018-02-20T02:57:52.900Z,0
2018-02-20T02:58:53.467Z,0
2018-02-20T02:59:54.033Z,0
2018-02-20T03:00:54.618Z,0
2018-02-20T03:01:55.177Z,0
2018-02-20T03:02:55.743Z,0
2018-02-20T03:03:56.311Z,0
2018-02-20T03:04:56.887Z,0
2018-02-20T03:05:57.465Z,0
2018-02-20T03:06:58.030Z,0
2018-02-20T03:07:58.600Z,0
2018-02-20T03:08:59.166Z,0
2018-02-20T03:09:59.727Z,0
2018-02-20T03:11:00.294Z,0
2018-02-20T03:12:00.861Z,0
2018-02-20T03:13:01.427Z,0
2018-02-20T03:14:01.993Z,0
2018-02-20T03:15:02.561Z,0
2018-02-20T03:16:03.127Z,0
2018-02-20T03:17:03.694Z,0
2018-02-20T03:18:04.260Z,0
2018-02-20T03:19:04.826Z,0
2018-02-20T03:20:05.396Z,0
2018-02-20T03:21:05.971Z,0
2018-02-20T03:22:06.541Z,0
2018-02-20T03:23:07.103Z,0
2018-02-20T03:24:07.671Z,0
2018-02-20T03:25:08.235Z,0
2018-02-20T03:26:08.802Z,0
2018-02-20T03:27:09.369Z,0
2018-02-20T03:28:09.936Z,0
2018-02-20T03:29:10.515Z,0
2018-02-20T03:30:11.082Z,0
2018-02-20T03:31:11.648Z,0
2018-02-20T03:32:12.214Z,0
2018-02-20T03:33:12.781Z,0
2018-02-20T03:34:13.346Z,0
2018-02-20T03:35:13.913Z,0
2018-02-20T03:36:14.479Z,0
2018-02-20T03:37:15.045Z,0
2018-02-20T03:38:15.611Z,0
2018-02-20T03:39:16.180Z,0
2018-02-20T03:40:16.743Z,0
2018-02-20T03:41:17.308Z,0
2018-02-20T03:42:17.888Z,0
2018-02-20T03:43:18.455Z,0
2018-02-20T03:44:19.022Z,0
2018-02-20T03:45:19.585Z,0
2018-02-20T03:46:20.154Z,0
2018-02-20T03:47:20.716Z,0
2018-02-20T03:48:21.282Z,0
2018-02-20T03:49:21.849Z,0
2018-02-20T03:50:22.415Z,0
2018-02-20T03:51:22.982Z,0
2018-02-20T03:52:23.548Z,0
2018-02-20T03:53:24.116Z,0
2018-02-20T03:54:24.693Z,0
2018-02-20T03:55:25.261Z,0
2018-02-20T03:56:25.829Z,0
2018-02-20T03:57:26.408Z,0
2018-02-20T03:58:26.977Z,0
2018-02-20T03:59:27.542Z,0
2018-02-20T04:00:28.109Z,0
2018-02-20T04:01:28.677Z,0
2018-02-20T04:02:29.258Z,0
2018-02-20T04:03:29.823Z,0
2018-02-20T04:04:30.390Z,0
2018-02-20T04:05:30.972Z,0
2018-02-20T04:06:31.550Z,0
2018-02-20T04:07:32.132Z,0
2018-02-20T04:08:32.697Z,0
2018-02-20T04:09:33.261Z,0
2018-02-20T04:10:33.826Z,0
2018-02-20T04:11:34.391Z,0
2018-02-20T04:12:34.958Z,0
2018-02-20T04:13:35.522Z,0
2018-02-20T04:14:36.089Z,0
2018-02-20T04:15:36.653Z,0
2018-02-20T04:16:37.218Z,0
2018-02-20T04:17:37.784Z,0
2018-02-20T04:18:38.351Z,0
2018-02-20T04:19:38.918Z,0
2018-02-20T04:20:39.484Z,0
2018-02-20T04:21:40.063Z,0
2018-02-20T04:22:40.628Z,0
2018-02-20T04:23:41.196Z,0
2018-02-20T04:24:41.762Z,0
2018-02-20T04:25:42.332Z,0
2018-02-20T04:26:42.893Z,0
2018-02-20T04:27:43.461Z,0
2018-02-20T04:28:44.026Z,0
2018-02-20T04:29:44.592Z,0
2018-02-20T04:30:45.157Z,0
2018-02-20T04:31:45.737Z,0
2018-02-20T04:32:46.307Z,0
2018-02-20T04:33:46.884Z,0
2018-02-20T04:34:47.448Z,0
2018-02-20T04:35:48.013Z,0
2018-02-20T04:36:48.579Z,0
2018-02-20T04:37:49.146Z,0
2018-02-20T04:38:49.713Z,0
2018-02-20T04:39:50.291Z,0
2018-02-20T04:40:50.858Z,0
2018-02-20T04:41:51.420Z,0
2018-02-20T04:42:51.986Z,0
2018-02-20T04:43:52.554Z,0
2018-02-20T04:44:53.120Z,0
2018-02-20T04:45:53.686Z,0
2018-02-20T04:46:54.250Z,0
2018-02-20T04:47:54.817Z,0
2018-02-20T04:48:55.384Z,0
2018-02-20T04:49:55.948Z,0
2018-02-20T04:50:56.514Z,0
2018-02-20T04:51:57.079Z,0
2018-02-20T04:52:57.646Z,0
2018-02-20T04:53:58.213Z,0
2018-02-20T04:54:58.778Z,0
2018-02-20T04:55:59.342Z,0
2018-02-20T04:56:59.908Z,0
2018-02-20T04:58:00.476Z,0
2018-02-20T04:59:01.055Z,0
2018-02-20T05:00:01.622Z,0
2018-02-20T05:01:02.186Z,0
2018-02-20T05:02:02.752Z,0
2018-02-20T05:03:03.317Z,0
2018-02-20T05:04:03.884Z,0
2018-02-20T05:05:04.450Z,0
2018-02-20T05:06:05.016Z,0
2018-02-20T05:07:05.580Z,0
2018-02-20T05:08:06.144Z,0
2018-02-20T05:09:06.710Z,0
2018-02-20T05:10:07.296Z,0
2018-02-20T05:11:07.853Z,0
2018-02-20T05:12:08.420Z,0
2018-02-20T05:13:08.987Z,0
2018-02-20T05:14:09.551Z,0
2018-02-20T05:15:10.116Z,0
2018-02-20T05:16:10.694Z,0
2018-02-20T05:17:11.274Z,0
2018-02-20T05:18:11.839Z,0
2018-02-20T05:19:12.404Z,0
2018-02-20T05:20:12.969Z,0
2018-02-20T05:21:13.535Z,0
2018-02-20T05:22:14.101Z,0
2018-02-20T05:23:14.669Z,0
2018-02-20T05:24:15.230Z,0
2018-02-20T05:25:15.795Z,0
2018-02-20T05:26:16.361Z,0
2018-02-20T05:27:16.933Z,0
2018-02-20T05:28:17.510Z,0
2018-02-20T05:29:18.089Z,0
2018-02-20T05:30:18.655Z,0
2018-02-20T05:31:19.222Z,0
2018-02-20T05:32:19.788Z,0
2018-02-20T05:33:20.352Z,0
2018-02-20T05:34:20.920Z,0
2018-02-20T05:35:21.484Z,0
2018-02-20T05:36:22.051Z,0
2018-02-20T05:37:22.617Z,0
2018-02-20T05:38:23.183Z,0
2018-02-20T05:39:23.750Z,0
2018-02-20T05:40:24.314Z,0
2018-02-20T05:41:24.879Z,0
2018-02-20T05:42:25.443Z,0
2018-02-20T05:43:26.009Z,0
2018-02-20T05:44:26.577Z,0
2018-02-20T05:45:27.140Z,0
2018-02-20T05:46:27.706Z,0
2018-02-20T05:47:28.271Z,0
2018-02-20T05:48:28.835Z,0
2018-02-20T05:49:29.404Z,0
2018-02-20T05:50:29.968Z,0
2018-02-20T05:51:30.543Z,0
2018-02-20T05:52:31.113Z,0
2018-02-20T05:53:31.678Z,0
2018-02-20T05:54:32.243Z,0
2018-02-20T05:55:32.808Z,0
2018-02-20T05:56:33.375Z,0
2018-02-20T05:57:33.942Z,0
2018-02-20T05:58:34.506Z,0
2018-02-20T05:59:35.072Z,0
2018-02-20T06:00:35.638Z,0
2018-02-20T06:01:36.205Z,0
2018-02-20T06:02:36.774Z,0
2018-02-20T06:03:37.335Z,0
2018-02-20T06:04:37.902Z,0
2018-02-20T06:05:38.465Z,0
2018-02-20T06:06:39.034Z,0
2018-02-20T06:07:39.597Z,0
2018-02-20T06:08:40.162Z,0
2018-02-20T06:09:40.774Z,0
2018-02-20T06:10:41.298Z,0
2018-02-20T06:11:41.857Z,0
2018-02-20T06:12:42.425Z,0
2018-02-20T06:13:42.991Z,0
2018-02-20T06:14:43.554Z,0
2018-02-20T06:15:44.120Z,0
2018-02-20T06:16:44.686Z,4
2018-02-20T06:17:45.251Z,0
2018-02-20T06:18:45.819Z,0
2018-02-20T06:19:46.396Z,0
2018-02-20T06:20:46.962Z,4
2018-02-20T06:21:47.527Z,0
2018-02-20T06:22:48.106Z,4
2018-02-20T06:23:48.670Z,0
2018-02-20T06:24:49.238Z,4
2018-02-20T06:25:49.804Z,4
2018-02-20T06:26:50.369Z,8
2018-02-20T06:27:50.934Z,8
2018-02-20T06:28:51.499Z,8
2018-02-20T06:29:52.066Z,8
2018-02-20T06:30:52.632Z,12
2018-02-20T06:31:53.198Z,12
2018-02-20T06:32:53.764Z,12
2018-02-20T06:33:54.345Z,12
2018-02-20T06:34:54.912Z,12
2018-02-20T06:35:55.480Z,16
2018-02-20T06:36:56.047Z,20
2018-02-20T06:37:56.613Z,20
2018-02-20T06:38:57.191Z,24
2018-02-20T06:39:57.758Z,24
2018-02-20T06:40:58.324Z,24
2018-02-20T06:41:58.893Z,32
2018-02-20T06:42:59.459Z,32
2018-02-20T06:44:00.042Z,36
2018-02-20T06:45:00.605Z,36
2018-02-20T06:46:01.174Z,40
2018-02-20T06:47:01.740Z,40
2018-02-20T06:48:02.321Z,44
2018-02-20T06:49:02.890Z,48
2018-02-20T06:50:03.458Z,52
2018-02-20T06:51:04.022Z,56
2018-02-20T06:52:04.590Z,60
2018-02-20T06:53:05.156Z,60
2018-02-20T06:54:05.721Z,64
2018-02-20T06:55:06.301Z,72
2018-02-20T06:56:06.865Z,72
2018-02-20T06:57:07.434Z,76
2018-02-20T06:58:08.001Z,80
2018-02-20T06:59:08.567Z,84
2018-02-20T07:00:09.134Z,84
2018-02-20T07:01:09.700Z,92
2018-02-20T07:02:10.270Z,92
2018-02-20T07:03:10.834Z,100
2018-02-20T07:04:11.401Z,100
2018-02-20T07:05:11.969Z,104
2018-02-20T07:06:12.538Z,104
2018-02-20T07:07:13.104Z,112
2018-02-20T07:08:13.672Z,112
2018-02-20T07:09:14.255Z,120
2018-02-20T07:10:14.824Z,124
2018-02-20T07:11:15.391Z,124
2018-02-20T07:12:15.963Z,132
2018-02-20T07:13:16.528Z,132
2018-02-20T07:14:17.094Z,140
2018-02-20T07:15:17.662Z,140
2018-02-20T07:16:18.231Z,144
2018-02-20T07:17:18.799Z,148
2018-02-20T07:18:19.366Z,148
2018-02-20T07:19:19.936Z,152
2018-02-20T07:20:20.502Z,156
2018-02-20T07:21:21.070Z,160
2018-02-20T07:22:21.639Z,164
2018-02-20T07:23:22.208Z,168
2018-02-20T07:24:22.774Z,168
2018-02-20T07:25:23.340Z,176
2018-02-20T07:26:23.909Z,176
2018-02-20T07:27:24.489Z,176
2018-02-20T07:28:25.056Z,184
2018-02-20T07:29:25.624Z,184
2018-02-20T07:30:26.191Z,188
2018-02-20T07:31:26.758Z,192
2018-02-20T07:32:27.324Z,196
2018-02-20T07:33:27.890Z,200
2018-02-20T07:34:28.458Z,196
2018-02-20T07:35:29.025Z,200
2018-02-20T07:36:29.591Z,208
2018-02-20T07:37:30.171Z,208
2018-02-20T07:38:30.752Z,212
2018-02-20T07:39:31.334Z,216
2018-02-20T07:40:31.902Z,220
2018-02-20T07:41:32.470Z,220
2018-02-20T07:42:33.042Z,224
2018-02-20T07:43:33.623Z,228
2018-02-20T07:44:34.190Z,228
2018-02-20T07:45:34.760Z,232
2018-02-20T07:46:35.329Z,232
2018-02-20T07:47:35.897Z,236
2018-02-20T07:48:36.465Z,240
2018-02-20T07:49:37.046Z,244
2018-02-20T07:50:37.616Z,244
2018-02-20T07:51:38.184Z,248
2018-02-20T07:52:38.751Z,248
2018-02-20T07:53:39.324Z,248
2018-02-20T07:54:39.893Z,252
2018-02-20T07:55:40.461Z,256
2018-02-20T07:56:41.031Z,260
2018-02-20T07:57:41.600Z,260
2018-02-20T07:58:42.168Z,264
2018-02-20T07:59:42.738Z,264
2018-02-20T08:00:43.309Z,268
2018-02-20T08:01:43.874Z,268
2018-02-20T08:02:44.446Z,268
2018-02-20T08:03:45.015Z,276
2018-02-20T08:04:45.583Z,276
2018-02-20T08:05:46.154Z,276
2018-02-20T08:06:46.724Z,280
2018-02-20T08:07:47.297Z,280
2018-02-20T08:08:47.864Z,284
2018-02-20T08:09:48.447Z,284
2018-02-20T08:10:49.017Z,284
2018-02-20T08:11:49.585Z,288
2018-02-20T08:12:50.169Z,288
2018-02-20T08:13:50.739Z,292
2018-02-20T08:14:51.307Z,296
2018-02-20T08:15:51.877Z,296
2018-02-20T08:16:52.447Z,300
2018-02-20T08:17:53.016Z,300
2018-02-20T08:18:53.587Z,300
2018-02-20T08:19:54.154Z,304
2018-02-20T08:20:54.724Z,304
2018-02-20T08:21:55.308Z,312
2018-02-20T08:22:55.877Z,312
2018-02-20T08:23:56.447Z,312
2018-02-20T08:24:57.018Z,316
2018-02-20T08:25:57.587Z,316
2018-02-20T08:26:58.155Z,316
2018-02-20T08:27:58.726Z,320
2018-02-20T08:28:59.295Z,320
2018-02-20T08:29:59.864Z,324
2018-02-20T08:31:00.432Z,328
2018-02-20T08:32:01.000Z,324
2018-02-20T08:33:01.569Z,332
2018-02-20T08:34:02.135Z,328
2018-02-20T08:35:02.702Z,328
2018-02-20T08:36:03.272Z,332
2018-02-20T08:37:03.840Z,332
2018-02-20T08:38:04.408Z,336
2018-02-20T08:39:04.979Z,340
2018-02-20T08:40:05.545Z,340
2018-02-20T08:41:06.113Z,340
2018-02-20T08:42:06.684Z,344
2018-02-20T08:43:07.252Z,344
2018-02-20T08:44:07.820Z,348
2018-02-20T08:45:08.391Z,348
2018-02-20T08:46:08.959Z,352
2018-02-20T08:47:09.528Z,352
2018-02-20T08:48:10.103Z,356
2018-02-20T08:49:10.680Z,352
2018-02-20T08:50:11.249Z,352
2018-02-20T08:51:11.818Z,352
2018-02-20T08:52:12.386Z,360
2018-02-20T08:53:12.955Z,360
2018-02-20T08:54:13.526Z,364
2018-02-20T08:55:14.094Z,360
2018-02-20T08:56:14.665Z,364
2018-02-20T08:57:15.247Z,356
2018-02-20T08:58:15.817Z,356
2018-02-20T08:59:16.385Z,360
2018-02-20T09:00:16.953Z,360
2018-02-20T09:01:17.525Z,364
2018-02-20T09:02:18.093Z,360
2018-02-20T09:03:18.661Z,364
2018-02-20T09:04:19.231Z,364
2018-02-20T09:05:19.813Z,368
2018-02-20T09:06:20.382Z,364
2018-02-20T09:07:20.951Z,368
2018-02-20T09:08:21.533Z,368
2018-02-20T09:09:22.102Z,372
2018-02-20T09:10:22.670Z,368
2018-02-20T09:11:23.254Z,372
2018-02-20T09:12:23.808Z,376
2018-02-20T09:13:24.376Z,376
2018-02-20T09:14:24.947Z,376
2018-02-20T09:15:25.516Z,376
2018-02-20T09:16:26.090Z,376
2018-02-20T09:17:26.656Z,380
2018-02-20T09:18:27.225Z,380
2018-02-20T09:19:27.796Z,380
2018-02-20T09:20:28.364Z,380
2018-02-20T09:21:28.933Z,384
2018-02-20T09:22:29.502Z,388
2018-02-20T09:23:30.072Z,388
2018-02-20T09:24:30.642Z,388
2018-02-20T09:25:31.215Z,388
2018-02-20T09:26:31.778Z,392
2018-02-20T09:27:32.347Z,392
2018-02-20T09:28:32.917Z,392
2018-02-20T09:29:33.485Z,392
2018-02-20T09:30:34.055Z,396
2018-02-20T09:31:34.628Z,396
2018-02-20T09:32:35.195Z,400
2018-02-20T09:33:35.779Z,400
2018-02-20T09:34:36.349Z,404
2018-02-20T09:35:36.918Z,404
2018-02-20T09:36:37.487Z,404
2018-02-20T09:37:38.056Z,404
2018-02-20T09:38:38.627Z,404
2018-02-20T09:39:39.195Z,404
2018-02-20T09:40:39.765Z,404
2018-02-20T09:41:40.336Z,404
2018-02-20T09:42:40.906Z,404
2018-02-20T09:43:41.476Z,408
2018-02-20T09:44:42.045Z,408
2018-02-20T09:45:42.616Z,412
2018-02-20T09:46:43.186Z,412
2018-02-20T09:47:43.755Z,416
2018-02-20T09:48:44.325Z,416
2018-02-20T09:49:44.895Z,416
2018-02-20T09:50:45.465Z,420
2018-02-20T09:51:46.035Z,420
2018-02-20T09:52:46.605Z,424
2018-02-20T09:53:47.175Z,420
2018-02-20T09:54:47.744Z,424
2018-02-20T09:55:48.315Z,424
2018-02-20T09:56:48.886Z,428
2018-02-20T09:57:49.453Z,424
2018-02-20T09:58:50.025Z,428
2018-02-20T09:59:50.594Z,428
2018-02-20T10:00:51.166Z,432
2018-02-20T10:01:51.734Z,432
2018-02-20T10:02:52.304Z,432
2018-02-20T10:03:52.874Z,432
2018-02-20T10:04:53.444Z,436
2018-02-20T10:05:54.014Z,440
2018-02-20T10:06:54.586Z,440
2018-02-20T10:07:55.148Z,440
2018-02-20T10:08:55.719Z,440
2018-02-20T10:09:56.302Z,440
2018-02-20T10:10:56.871Z,440
2018-02-20T10:11:57.441Z,444
2018-02-20T10:12:58.013Z,444
2018-02-20T10:13:58.584Z,448
2018-02-20T10:14:59.154Z,448
2018-02-20T10:15:59.726Z,452
2018-02-20T10:17:00.297Z,448
2018-02-20T10:18:00.885Z,452
2018-02-20T10:19:01.465Z,452
2018-02-20T10:20:02.042Z,456
2018-02-20T10:21:02.606Z,456
2018-02-20T10:22:03.175Z,456
2018-02-20T10:23:03.744Z,456
2018-02-20T10:24:04.315Z,460
2018-02-20T10:25:04.885Z,460
2018-02-20T10:26:05.456Z,460
2018-02-20T10:27:06.029Z,464
2018-02-20T10:28:06.599Z,464
2018-02-20T10:29:07.168Z,460
2018-02-20T10:30:07.751Z,464
2018-02-20T10:31:08.320Z,464
2018-02-20T10:32:08.912Z,464
2018-02-20T10:33:09.464Z,464
2018-02-20T10:34:10.035Z,468
2018-02-20T10:35:10.605Z,472
2018-02-20T10:36:11.178Z,472
2018-02-20T10:37:11.752Z,472
2018-02-20T10:38:12.333Z,468
2018-02-20T10:39:12.904Z,468
2018-02-20T10:40:13.488Z,472
2018-02-20T10:41:14.062Z,476
2018-02-20T10:42:14.631Z,476
2018-02-20T10:43:15.204Z,476
2018-02-20T10:44:15.775Z,480
2018-02-20T10:45:16.344Z,488
2018-02-20T10:46:16.914Z,484
2018-02-20T10:47:17.491Z,484
2018-02-20T10:48:18.058Z,488
2018-02-20T10:49:18.628Z,488
2018-02-20T10:50:19.210Z,492
2018-02-20T10:51:19.781Z,496
2018-02-20T10:52:20.352Z,500
2018-02-20T10:53:20.937Z,496
2018-02-20T10:54:21.508Z,492
2018-02-20T10:55:22.080Z,492
2018-02-20T10:56:22.651Z,496
2018-02-20T10:57:23.223Z,500
2018-02-20T10:58:23.792Z,508
2018-02-20T10:59:24.363Z,496
2018-02-20T11:00:24.936Z,504
2018-02-20T11:01:25.508Z,500
2018-02-20T11:02:26.094Z,500
2018-02-20T11:03:26.666Z,512
2018-02-20T11:04:27.238Z,520
2018-02-20T11:05:27.815Z,504
2018-02-20T11:06:28.380Z,504
2018-02-20T11:07:28.952Z,508
2018-02-20T11:08:29.536Z,512
2018-02-20T11:09:30.120Z,512
2018-02-20T11:10:30.689Z,512
2018-02-20T11:11:31.264Z,524
2018-02-20T11:12:31.831Z,532
2018-02-20T11:13:32.402Z,528
2018-02-20T11:14:32.973Z,532
2018-02-20T11:15:33.544Z,544
2018-02-20T11:16:34.115Z,544
2018-02-20T11:17:34.687Z,552
2018-02-20T11:18:35.258Z,568
2018-02-20T11:19:35.829Z,576
2018-02-20T11:20:36.402Z,584
2018-02-20T11:21:36.972Z,600
2018-02-20T11:22:37.558Z,620
2018-02-20T11:23:38.129Z,640
2018-02-20T11:24:38.703Z,632
2018-02-20T11:25:39.299Z,648
2018-02-20T11:26:39.846Z,680
2018-02-20T11:27:40.418Z,720
2018-02-20T11:28:40.988Z,736
2018-02-20T11:29:41.573Z,768
2018-02-20T11:30:42.157Z,776
2018-02-20T11:31:42.728Z,772
2018-02-20T11:32:43.299Z,784
2018-02-20T11:33:43.871Z,760
2018-02-20T11:34:44.445Z,776
2018-02-20T11:35:45.017Z,780
2018-02-20T11:36:45.588Z,816
2018-02-20T11:37:46.160Z,804
2018-02-20T11:38:46.731Z,808
2018-02-20T11:39:47.303Z,768
2018-02-20T11:40:47.877Z,792
2018-02-20T11:41:48.448Z,776
2018-02-20T11:42:49.017Z,740
2018-02-20T11:43:49.630Z,784
2018-02-20T11:44:50.161Z,764
2018-02-20T11:45:50.746Z,644
2018-02-20T11:46:51.332Z,640
2018-02-20T11:47:51.906Z,640
2018-02-20T11:48:52.488Z,640
2018-02-20T11:49:53.059Z,640
2018-02-20T11:50:53.631Z,644
2018-02-20T11:51:54.204Z,644
2018-02-20T11:52:54.775Z,648
2018-02-20T11:53:55.361Z,648
2018-02-20T11:54:55.933Z,648
2018-02-20T11:55:56.506Z,652
2018-02-20T11:56:57.091Z,652
2018-02-20T11:57:57.665Z,648
2018-02-20T11:58:58.236Z,644
2018-02-20T11:59:58.808Z,648
2018-02-20T12:00:59.381Z,652
2018-02-20T12:01:59.950Z,652
2018-02-20T12:03:00.524Z,652
2018-02-20T12:04:01.095Z,656
2018-02-20T12:05:01.667Z,652
2018-02-20T12:06:02.239Z,652
2018-02-20T12:07:02.811Z,648
2018-02-20T12:08:03.383Z,644
2018-02-20T12:09:03.954Z,644
2018-02-20T12:10:04.526Z,644
2018-02-20T12:11:05.098Z,644
2018-02-20T12:12:05.670Z,648
2018-02-20T12:13:06.242Z,648
2018-02-20T12:14:06.828Z,652
2018-02-20T12:15:07.402Z,656
2018-02-20T12:16:07.975Z,656
2018-02-20T12:17:08.547Z,660
2018-02-20T12:18:09.118Z,660
2018-02-20T12:19:09.708Z,660
2018-02-20T12:20:10.262Z,656
2018-02-20T12:21:10.839Z,664
2018-02-20T12:22:11.419Z,656
2018-02-20T12:23:11.995Z,652
2018-02-20T12:24:12.563Z,652
2018-02-20T12:25:13.136Z,652
2018-02-20T12:26:13.708Z,652
2018-02-20T12:27:14.294Z,656
2018-02-20T12:28:14.864Z,664
2018-02-20T12:29:15.437Z,664
2018-02-20T12:30:16.010Z,660
2018-02-20T12:31:16.581Z,664
2018-02-20T12:32:17.156Z,656
2018-02-20T12:33:17.728Z,648
2018-02-20T12:34:18.298Z,648
2018-02-20T12:35:18.874Z,652
2018-02-20T12:36:19.444Z,656
2018-02-20T12:37:20.016Z,656
2018-02-20T12:38:20.590Z,660
2018-02-20T12:39:21.164Z,656
2018-02-20T12:40:21.729Z,656
2018-02-20T12:41:22.299Z,656
2018-02-20T12:42:22.872Z,652
2018-02-20T12:43:23.445Z,644
2018-02-20T12:44:24.016Z,644
2018-02-20T12:45:24.587Z,648
2018-02-20T12:46:25.173Z,656
2018-02-20T12:47:25.748Z,656
2018-02-20T12:48:26.318Z,656
2018-02-20T12:49:26.891Z,660
2018-02-20T12:50:27.476Z,660
2018-02-20T12:51:28.050Z,664
2018-02-20T12:52:28.621Z,664
2018-02-20T12:53:29.194Z,664
2018-02-20T12:54:29.764Z,672
2018-02-20T12:55:30.351Z,680
2018-02-20T12:56:30.936Z,680
2018-02-20T12:57:31.507Z,692
2018-02-20T12:58:32.079Z,712
2018-02-20T12:59:32.651Z,732
2018-02-20T13:00:33.224Z,708
2018-02-20T13:01:33.794Z,696
2018-02-20T13:02:34.366Z,692
2018-02-20T13:03:34.939Z,692
2018-02-20T13:04:35.511Z,664
2018-02-20T13:05:36.097Z,652
2018-02-20T13:06:36.669Z,644
2018-02-20T13:07:37.240Z,632
2018-02-20T13:08:37.813Z,624
2018-02-20T13:09:38.385Z,620
2018-02-20T13:10:38.957Z,616
2018-02-20T13:11:39.529Z,612
2018-02-20T13:12:40.101Z,608
2018-02-20T13:13:40.674Z,604
2018-02-20T13:14:41.272Z,604
2018-02-20T13:15:41.819Z,596
2018-02-20T13:16:42.388Z,588
2018-02-20T13:17:42.961Z,584
2018-02-20T13:18:43.550Z,584
2018-02-20T13:19:44.133Z,592
2018-02-20T13:20:44.719Z,596
2018-02-20T13:21:45.290Z,596
2018-02-20T13:22:45.860Z,600
2018-02-20T13:23:46.434Z,596
2018-02-20T13:24:47.005Z,588
2018-02-20T13:25:47.576Z,584
2018-02-20T13:26:48.148Z,576
2018-02-20T13:27:48.724Z,572
2018-02-20T13:28:49.291Z,572
2018-02-20T13:29:49.863Z,576
2018-02-20T13:30:50.436Z,576
2018-02-20T13:31:51.008Z,576
2018-02-20T13:32:51.579Z,572
2018-02-20T13:33:52.151Z,576
2018-02-20T13:34:52.724Z,572
2018-02-20T13:35:53.295Z,564
2018-02-20T13:36:53.866Z,560
2018-02-20T13:37:54.451Z,552
2018-02-20T13:38:55.024Z,552
2018-02-20T13:39:55.595Z,548
2018-02-20T13:40:56.166Z,544
2018-02-20T13:41:56.751Z,540
2018-02-20T13:42:57.320Z,536
2018-02-20T13:43:57.892Z,528
2018-02-20T13:44:58.466Z,524
2018-02-20T13:45:59.036Z,512
2018-02-20T13:46:59.608Z,500
2018-02-20T13:48:00.180Z,476
2018-02-20T13:49:00.750Z,464
2018-02-20T13:50:01.322Z,448
2018-02-20T13:51:01.896Z,436
2018-02-20T13:52:02.481Z,424
2018-02-20T13:53:03.052Z,416
2018-02-20T13:54:03.623Z,408
2018-02-20T13:55:04.196Z,400
2018-02-20T13:56:04.767Z,400
2018-02-20T13:57:05.356Z,396
2018-02-20T13:58:05.923Z,392
2018-02-20T13:59:06.494Z,388
2018-02-20T14:00:07.064Z,384
2018-02-20T14:01:07.635Z,388
2018-02-20T14:02:08.202Z,384
2018-02-20T14:03:08.773Z,388
2018-02-20T14:04:09.344Z,392
2018-02-20T14:05:09.923Z,396
2018-02-20T14:06:10.493Z,400
2018-02-20T14:07:11.063Z,416
2018-02-20T14:08:11.631Z,440
2018-02-20T14:09:12.199Z,488
2018-02-20T14:10:12.777Z,520
2018-02-20T14:11:13.350Z,592
2018-02-20T14:12:13.921Z,644
2018-02-20T14:13:14.499Z,652
2018-02-20T14:14:15.069Z,704
2018-02-20T14:15:15.639Z,724
2018-02-20T14:16:16.210Z,740
2018-02-20T14:17:16.778Z,748
2018-02-20T14:18:17.348Z,752
2018-02-20T14:19:17.929Z,752
2018-02-20T14:20:18.539Z,756
2018-02-20T14:21:19.073Z,760